Tiempo atmosférico en la estación meteorológica de San Bartolome Tirajana, Lomo Pedro Alfonso, Las Palmas (806 m.)



Fecha
DESCASC
Temp. máxima en grados centígrados (hora)
DESCASC
Temp. mínima en grados centígrados (hora)
DESCASC
Temp. media en grados centígrados
DESCASC
Racha de viento máxima en m/sg (hora)
DESCASC
Velocidad máxima media en intervalos de 10 minutos(hora)
DESCASC
Precipitaciones diarias en mm
DESCASC
Precipitaciones de 00:00 a 06:00 en mm
DESCASC
Precipitaciones de 06:00 a 12:00 en mm
DESCASC
Precipitaciones de 12:00 a 18:00 en mm
DESCASC
Precipitaciones de 18:00 a 24:00 en mm
DESCASC
21-01-2021 20.6 (16:20) 10.5 (00:00) 15.6 4.44 (12:50) 3.33 (01:50) 0.3 0 0.3 0 0
03-01-2021 14.1 (16:00) 9.9 (00:00) 12 4.72 (13:50) 2.78 (01:50) 0 0 0 0 0
17-01-2021 17.5 (14:40) 8.4 (00:00) 12.9 5.83 (16:40) 3.89 (21:40) 0 0 0 0 0
19-01-2021 18.2 (15:20) 10.4 (00:00) 14.3 5.83 (17:20) 3.61 (17:20) 0 0 0 0 0
20-01-2021 18.9 (14:40) 11 (00:00) 14.9 5.83 (15:10) 4.17 (01:50) 0 0 0 0 0
18-01-2021 18.7 (15:30) 11.6 (00:00) 15.2 6.11 (12:40) 3.61 (01:10) 0 0 0 0 0
26-12-2020 19.3 (14:00) 12.5 (00:00) 15.9 6.39 (00:50) 5 (00:50) 0 0 0 0 0
30-12-2020 17.8 (13:40) 10 (00:00) 13.9 6.39 (14:00) 4.17 (14:00) 0 0 0 0 0
02-01-2021 15.9 (12:50) 9.1 (00:00) 12.5 6.67 (13:00) 3.89 (12:50) 0 0 0 0 0
29-12-2020 18.7 (13:40) 11.3 (00:00) 15 6.94 (14:20) 3.89 (13:40) 0 0 0 0 0
01-01-2021 16.6 (13:40) 9.4 (00:00) 13 6.94 (14:00) 3.61 (13:40) 0 0 0 0 0
27-12-2020 19.9 (15:00) 13 (00:00) 16.4 7.22 (13:00) 4.17 (13:40) 0 0 0 0 0
15-01-2021 16.2 (15:20) 7.8 (00:00) 12 7.22 (17:00) 3.61 (15:20) 0 0 0 0 0
16-01-2021 17 (15:30) 8 (00:00) 12.5 7.78 (15:10) 3.61 (14:20) 0 0 0 0 0
13-01-2021 16.3 (15:30) 9.6 (00:00) 12.9 7.78 (10:30) 5.56 (19:20) 0 0 0 0 0
31-12-2020 17.2 (16:10) 10.3 (00:00) 13.8 7.78 (16:30) 4.72 (16:10) 0 0 0 0 0
28-12-2020 20.4 (16:00) 14.2 (00:00) 17.3 8.61 (08:00) 5.28 (08:00) 0 0 0 0 0
14-01-2021 11.7 (13:40) 8.8 (23:20) 10.3 9.44 (03:40) 6.94 (03:40) 0 0 0 0 0
05-01-2021 17.2 (14:30) 12.9 (00:00) 15.1 11.11 (16:30) 6.11 (01:50) 5.4 1 0.2 1.2 3
25-12-2020 20.4 (15:00) 12.8 (00:00) 16.6 11.11 (02:20) 7.5 (01:50) 0 0 0 0 0
11-01-2021 12.6 (13:10) 7.7 (00:00) 10.2 11.39 (00:20) 6.39 (00:10) 0 0 0 0 0
12-01-2021 13.2 (12:10) 9.1 (00:00) 11.2 11.39 (00:40) 8.33 (00:40) 1 0 0 1 0
04-01-2021 14 (20:30) 10.3 (00:00) 12.2 12.22 (21:40) 6.67 (21:20) 0 0 0 0 0
23-12-2020 17 (14:00) 13.2 (00:00) 15.1 13.06 (20:50) 6.11 (19:40) 0 0 0 0 0
24-12-2020 16.9 (14:40) 12.1 (00:00) 14.5 13.33 (06:50) 6.39 (19:10) 0 0 0 0 0
10-01-2021 12.5 (14:50) 8.1 (05:50) 10.3 19.72 (15:50) 10.28 (15:00) 1.2 0.6 0.6 0 0
09-01-2021 12 (16:00) 8.3 (00:00) 10.2 19.72 (06:30) 10.28 (06:30) 0.2 0.2 0 0 0
08-01-2021 14.9 (13:20) 9.7 (00:00) 12.3 22.22 (00:40) 11.11 (02:00) 1.2 1.2 0 0 0
06-01-2021 15.9 (13:50) 13.5 (00:00) 14.7 24.17 (16:10) 12.5 (09:40) 19.2 2.6 6.8 9.6 0.2
07-01-2021 15.5 (11:20) 13.6 (00:00) 14.6 25 (12:20) 13.61 (12:20) 30.2 5.2 14.2 4.8 6

Gráficas

Temp. máximas Temp. mínimas Temp. medias Precipitaciones Rachas de viento máximas Velocidades máximas media en intervalos de 10 minutos

Datos horarios

Fecha y hora oficial Temperatura (ºC) Velocidad del viento (km/h) Dirección del viento Racha (km/h) Dirección de racha Precipitación (mm) Presión (hPa) Tendencia (hPa) Humedad (%)
2021-01-21 23:00:00 14.5 0 Calma 8 Sur 0 -- -- 86
2021-01-21 22:00:00 15.4 0 Calma 9 Nordeste 0 -- -- 78
2021-01-21 21:00:00 16.6 3 Nordeste 7 Sudeste 0 -- -- 69
2021-01-21 20:00:00 17.5 5 Sudeste 7 Sudeste 0 -- -- 64
2021-01-21 19:00:00 18.2 0 Calma 9 Sur 0 -- -- 70
2021-01-21 18:00:00 20.1 4 Sudoeste 9 Sudoeste 0 -- -- 66
2021-01-21 17:00:00 20.6 4 Noroeste 13 Oeste 0 -- -- 67
2021-01-21 16:00:00 20.4 6 Oeste 13 Oeste 0 -- -- 67
2021-01-21 15:00:00 19.8 7 Oeste 14 Noroeste 0 -- -- 70
2021-01-21 14:00:00 19.6 8 Oeste 14 Noroeste 0 -- -- 68
2021-01-21 13:00:00 18.4 5 Sur 16 Sur 0 -- -- 69
2021-01-21 12:00:00 17.4 2 Norte 11 Sur 0 -- -- 70
2021-01-21 11:00:00 16.4 4 Sudoeste -- -- -- -- -- 68
2021-01-21 10:00:00 15.6 0 Calma 7 Este 0 -- -- 48
2021-01-21 09:00:00 14.8 3 Nordeste 9 Este 0 -- -- 39
2021-01-21 08:00:00 14 0 Calma 5 Nordeste 0 -- -- 40
2021-01-21 07:00:00 11.3 2 Norte 6 Nordeste 0 -- -- 65
2021-01-21 06:00:00 12 4 Sudeste 6 Nordeste 0 -- -- 54
2021-01-21 05:00:00 12.3 0 Calma 5 Nordeste 0 -- -- 51
2021-01-21 04:00:00 12.7 2 Sur 6 Sur 0 -- -- 44
2021-01-21 03:00:00 13.7 2 Nordeste 13 Este 0 -- -- 38
2021-01-21 02:00:00 14 6 Este 13 Este 0 -- -- 41
2021-01-21 01:00:00 10.6 4 Norte 6 Nordeste 0 -- -- 80
2021-01-21 00:00:00 11.1 4 Nordeste 7 Nordeste 0 -- -- 84
2021-01-20 23:00:00 13.6 2 Sudeste 8 Nordeste 0 -- -- 51
2021-01-20 22:00:00 12.6 4 Nordeste 6 Sur 0 -- -- 65
2021-01-20 21:00:00 11.2 3 Norte 5 Este 0 -- -- 90
2021-01-20 20:00:00 12.1 0 Calma 5 Este 0 -- -- 86
2021-01-20 19:00:00 13.9 2 Norte 10 Oeste 0 -- -- 78
2021-01-20 18:00:00 16.3 6 Oeste 15 Oeste 0 -- -- 72
2021-01-20 17:00:00 16.6 8 Sudoeste 20 Oeste 0 -- -- 72
2021-01-20 16:00:00 17 8 Sudoeste 21 Sudoeste 0 -- -- 70
2021-01-20 15:00:00 18.2 10 Sudoeste 18 Oeste 0 -- -- 66
2021-01-20 14:00:00 18.1 9 Oeste 19 Sudoeste 0 -- -- 61
2021-01-20 13:00:00 17.5 5 Oeste 9 Oeste 0 -- -- 52
2021-01-20 12:00:00 16.4 3 Sudoeste 9 Sudoeste 0 -- -- 48
2021-01-20 11:00:00 15 0 Calma 3 Noroeste 0 -- -- 28
2021-01-20 10:00:00 12.6 2 Noroeste 8 Sur 0 -- -- 31
2021-01-20 09:00:00 12.4 5 Sur 8 Sur 0 -- -- 25
2021-01-20 08:00:00 11.2 0 Calma 6 Nordeste 0 -- -- 27
2021-01-20 07:00:00 11.6 0 Calma 10 Este 0 -- -- 27
2021-01-20 06:00:00 11.8 5 Sudeste 9 Sudeste 0 -- -- 29
2021-01-20 05:00:00 12.8 4 Sur 6 Sur 0 -- -- 27
2021-01-20 04:00:00 12.5 0 Calma 9 Sudeste 0 -- -- 56
2021-01-20 03:00:00 11.9 7 Sudeste 15 Este 0 -- -- 60
2021-01-20 02:00:00 12.4 13 Este 17 Este 0 -- -- 44
2021-01-20 01:00:00 11.6 0 Calma 11 Este 0 -- -- 45
2021-01-20 00:00:00 12.3 7 Este 10 Sudeste 0 -- -- 51
2021-01-19 23:00:00 12.8 0 Calma 4 Nordeste 0 -- -- 47
2021-01-19 22:00:00 10.5 3 Nordeste 5 Sudoeste 0 -- -- 72
2021-01-19 21:00:00 11 2 Nordeste 6 Este 0 -- -- 89
2021-01-19 20:00:00 12.1 4 Norte 11 Sur 0 -- -- 87
2021-01-19 19:00:00 12.7 8 Sur 17 Oeste 0 -- -- 86
2021-01-19 18:00:00 15.5 9 Oeste 21 Sudoeste 0 -- -- 76
2021-01-19 17:00:00 16.7 13 Oeste 19 Oeste 0 -- -- 71
2021-01-19 16:00:00 17.6 10 Oeste 18 Oeste 0 -- -- 68
2021-01-19 15:00:00 17.8 10 Oeste 21 Oeste 0 -- -- 66
2021-01-19 14:00:00 17.1 8 Oeste 19 Sur 0 -- -- 66
2021-01-19 13:00:00 16.9 5 Oeste 15 Sudoeste 0 -- -- 65
2021-01-19 12:00:00 16.3 6 Sudoeste 11 Sur 0 -- -- 51
2021-01-19 11:00:00 13.9 3 Nordeste 8 Este 0 -- -- 42
2021-01-19 10:00:00 11.9 0 Calma 4 Nordeste 0 -- -- 26
2021-01-19 09:00:00 12 0 Calma 5 Sudoeste 0 -- -- 26
2021-01-19 08:00:00 12.4 3 Nordeste 6 Norte 0 -- -- 22
2021-01-19 07:00:00 12.6 4 Sudeste 6 Sudeste 0 -- -- 23
2021-01-19 06:00:00 12.4 3 Sudeste 8 Este 0 -- -- 22
2021-01-19 05:00:00 12.5 6 Este 8 Este 0 -- -- 23
2021-01-19 04:00:00 12 5 Este 14 Nordeste 0 -- -- 26
2021-01-19 03:00:00 11.3 10 Nordeste 13 Nordeste 0 -- -- 32
2021-01-19 02:00:00 11.7 9 Nordeste 12 Nordeste 0 -- -- 32
2021-01-19 01:00:00 12.4 6 Este 9 Este 0 -- -- 42
2021-01-19 00:00:00 11.6 8 Este 9 Nordeste 0 -- -- 51
2021-01-18 23:00:00 11.8 0 Calma 5 Noroeste 0 -- -- 70
2021-01-18 22:00:00 11.7 3 Nordeste 5 Nordeste 0 -- -- 74
2021-01-18 21:00:00 11.9 2 Nordeste 12 Este 0 -- -- 72
2021-01-18 20:00:00 11.8 2 Norte 10 Nordeste 0 -- -- 79
2021-01-18 19:00:00 12.8 4 Sur 13 Sudoeste 0 -- -- 74
2021-01-18 18:00:00 16.1 8 Oeste 18 Oeste 0 -- -- 59
2021-01-18 17:00:00 17.8 11 Oeste 19 Noroeste 0 -- -- 52
2021-01-18 16:00:00 18.1 12 Oeste 21 Sudoeste 0 -- -- 52
2021-01-18 15:00:00 18.3 10 Sudoeste 19 Sudoeste 0 -- -- 44
2021-01-18 14:00:00 18 9 Sudoeste 19 Oeste 0 -- -- 45
2021-01-18 13:00:00 17.5 8 Sudoeste 22 Sudoeste 0 -- -- 45
2021-01-18 12:00:00 16 6 Nordeste 20 Este 0 -- -- 35
2021-01-18 11:00:00 14.5 11 Este 18 Este 0 -- -- 24
2021-01-18 10:00:00 12.6 2 Nordeste 12 Este 0 -- -- 21
2021-01-18 09:00:00 12.4 0 Calma 5 Nordeste 0 -- -- 23
2021-01-18 08:00:00 12.4 3 Nordeste 5 Nordeste 0 -- -- 20
2021-01-18 07:00:00 12.9 3 Nordeste 6 Nordeste 0 -- -- 21
2021-01-18 06:00:00 12.5 3 Nordeste 9 Este 0 -- -- 18
2021-01-18 05:00:00 12.3 9 Nordeste 13 Este 0 -- -- 20
2021-01-18 04:00:00 13.2 7 Este 12 Nordeste 0 -- -- 17
2021-01-18 03:00:00 12.2 9 Nordeste 12 Nordeste 0 -- -- 21
2021-01-18 02:00:00 12.3 8 Nordeste 16 Este 0 -- -- 22
2021-01-18 01:00:00 12.6 10 Este 13 Este 0 -- -- 22
2021-01-18 00:00:00 12.8 8 Sudeste 10 Este 0 -- -- 26
2021-01-17 23:00:00 12.7 8 Este 14 Nordeste 0 -- -- 20
2021-01-17 22:00:00 12.5 12 Este 15 Este 0 -- -- 30
2021-01-17 21:00:00 12.6 9 Este 12 Este 0 -- -- 45
2021-01-17 20:00:00 12.4 5 Sur 8 Sur 0 -- -- 76
2021-01-17 19:00:00 12.5 3 Norte 12 Oeste 0 -- -- 83
2021-01-17 18:00:00 15 6 Oeste 18 Oeste 0 -- -- 76
2021-01-17 17:00:00 16.5 10 Oeste 21 Oeste 0 -- -- 72
2021-01-17 16:00:00 16.8 10 Oeste 20 Oeste 0 -- -- 70
2021-01-17 15:00:00 17.2 10 Oeste 21 Sudoeste 0 -- -- 68
2021-01-17 14:00:00 16.8 8 Sudoeste 17 Sudoeste 0 -- -- 68
2021-01-17 13:00:00 15.4 4 Oeste 8 Sudoeste 0 -- -- 67
2021-01-17 12:00:00 13.6 3 Oeste 6 Sudoeste 0 -- -- 73
2021-01-17 11:00:00 11.3 0 Calma 5 Sudoeste 0 -- -- 82
2021-01-17 10:00:00 8.8 0 Calma 4 Norte 0 -- -- 89
2021-01-17 09:00:00 8.6 2 Nordeste 5 Nordeste 0 -- -- 94
2021-01-17 08:00:00 8.6 0 Calma 4 Sudoeste 0 -- -- 93
2021-01-17 07:00:00 8.7 0 Calma 5 Nordeste 0 -- -- 93
2021-01-17 06:00:00 8.6 0 Calma 5 Nordeste 0 -- -- 92
2021-01-17 05:00:00 8.4 3 Noroeste 10 Norte 0 -- -- 93
2021-01-17 04:00:00 8.8 0 Calma 8 Noroeste 0 -- -- 92
2021-01-17 03:00:00 9 4 Noroeste 8 Noroeste 0 -- -- 91
2021-01-17 02:00:00 9.2 4 Noroeste 9 Norte 0 -- -- 91
2021-01-17 01:00:00 9.4 0 Calma 6 Noroeste 0 -- -- 91
2021-01-17 00:00:00 9.4 4 Noroeste 7 Norte 0 -- -- 90
2021-01-16 23:00:00 9.9 0 Calma 4 Nordeste 0 -- -- 89
2021-01-16 22:00:00 10.3 0 Calma 4 Sudoeste 0 -- -- 89
2021-01-16 21:00:00 10.6 0 Calma 6 Sudoeste 0 -- -- 86
2021-01-16 20:00:00 11.1 5 Sur 7 Noroeste 0 -- -- 83
2021-01-16 19:00:00 12.4 3 Noroeste 10 Oeste 0 -- -- 76
2021-01-16 18:00:00 14.6 8 Oeste 18 Sudoeste 0 -- -- 70
2021-01-16 17:00:00 16.1 9 Oeste 21 Oeste 0 -- -- 66
2021-01-16 16:00:00 16.7 9 Sudoeste 28 Oeste 0 -- -- 65
2021-01-16 15:00:00 16.5 11 Oeste 22 Oeste 0 -- -- 67
2021-01-16 14:00:00 16 10 Oeste 18 Oeste 0 -- -- 69
2021-01-16 13:00:00 14.8 8 Oeste 15 Noroeste 0 -- -- 70
2021-01-16 12:00:00 13.2 5 Sudoeste 9 Oeste 0 -- -- 72
2021-01-16 11:00:00 11.8 3 Sudoeste 6 Sudoeste 0 -- -- 75
2021-01-16 10:00:00 9.3 0 Calma 6 Sudoeste 0 -- -- 77
2021-01-16 09:00:00 8.8 0 Calma 9 Este 0 -- -- 79
2021-01-16 08:00:00 8.3 3 Este 8 Este 0 -- -- 79
2021-01-16 07:00:00 8.5 0 Calma 9 Nordeste 0 -- -- 82
2021-01-16 06:00:00 8.1 3 Norte 11 Norte 0 -- -- 89
2021-01-16 05:00:00 8.6 3 Norte 6 Nordeste 0 -- -- 87
2021-01-16 04:00:00 8.8 2 Norte 6 Norte 0 -- -- 85
2021-01-16 03:00:00 8.5 4 Noroeste 10 Norte 0 -- -- 88
2021-01-16 02:00:00 9 4 Nordeste 7 Nordeste 0 -- -- 85
2021-01-16 01:00:00 9.5 0 Calma 5 Sudoeste 0 -- -- 88
2021-01-16 00:00:00 9.4 0 Calma 8 Norte 0 -- -- 89
2021-01-15 23:00:00 9.4 5 Noroeste 8 Noroeste 0 -- -- 87
2021-01-15 22:00:00 9.7 0 Calma 10 Nordeste 0 -- -- 85
2021-01-15 21:00:00 10 0 Calma 7 Oeste 0 -- -- 85
2021-01-15 20:00:00 10.3 5 Sudoeste 12 Sudoeste 0 -- -- 84
2021-01-15 19:00:00 11.8 6 Sudoeste 11 Sudoeste 0 -- -- 77
2021-01-15 18:00:00 14.4 8 Oeste 18 Oeste 0 -- -- 69
2021-01-15 17:00:00 14.3 10 Sudoeste 26 Sudoeste 0 -- -- 69
2021-01-15 16:00:00 15.8 12 Oeste 23 Sudoeste 0 -- -- 65
2021-01-15 15:00:00 16.1 11 Oeste 21 Oeste 0 -- -- 63
2021-01-15 14:00:00 15.6 12 Oeste 22 Oeste 0 -- -- 66
2021-01-15 13:00:00 15.3 10 Oeste 17 Oeste 0 -- -- 66
2021-01-15 12:00:00 12.9 6 Oeste 9 Sudoeste 0 -- -- 70
2021-01-15 11:00:00 10.5 3 Norte 6 Oeste 0 -- -- 83
2021-01-15 10:00:00 9.3 2 Nordeste 10 Sur 0 -- -- 81
2021-01-15 09:00:00 8.7 0 Calma 5 Norte 0 -- -- 81
2021-01-15 08:00:00 7.9 2 Norte 14 Noroeste 0 -- -- 82
2021-01-15 07:00:00 8.2 4 Noroeste 13 Nordeste 0 -- -- 83
2021-01-15 06:00:00 8.5 7 Nordeste 10 Nordeste 0 -- -- 84
2021-01-15 05:00:00 8.3 4 Norte 10 Norte 0 -- -- 83
2021-01-15 04:00:00 8.7 5 Nordeste 9 Norte 0 -- -- 80
2021-01-15 03:00:00 8.6 4 Sudeste 9 Este 0 -- -- 78
2021-01-15 02:00:00 9.1 3 Sudoeste 9 Sudoeste 0 -- -- 78
2021-01-15 01:00:00 8.7 5 Noroeste 9 Sudoeste 0 -- -- 82
2021-01-15 00:00:00 9 3 Noroeste 13 Nordeste 0 -- -- 82
2021-01-14 23:00:00 9.1 7 Este 10 Este 0 -- -- 84
2021-01-14 22:00:00 9.6 5 Sudoeste 9 Sudoeste 0 -- -- 84
2021-01-14 21:00:00 10 0 Calma 5 Sudeste 0 -- -- 80
2021-01-14 20:00:00 10.3 0 Calma 3 Este 0 -- -- 80
2021-01-14 19:00:00 10.6 2 Noroeste 6 Sudeste 0 -- -- 80
2021-01-14 18:00:00 10.9 5 Este 9 Este 0 -- -- 78
2021-01-14 17:00:00 11.3 4 Oeste 10 Norte 0 -- -- 80
2021-01-14 16:00:00 10.9 6 Nordeste 20 Este 0 -- -- 80
2021-01-14 15:00:00 10.8 14 Nordeste 23 Nordeste 0 -- -- 80
2021-01-14 14:00:00 11.7 10 Nordeste 21 Nordeste 0 -- -- 74
2021-01-14 13:00:00 11.3 9 Este 15 Este 0 -- -- 75
2021-01-14 12:00:00 11.1 9 Norte 23 Nordeste 0 -- -- 76
2021-01-14 11:00:00 11 12 Nordeste 26 Nordeste 0 -- -- 75
2021-01-14 10:00:00 10.6 8 Este 24 Nordeste 0 -- -- 77
2021-01-14 09:00:00 10.3 17 Nordeste 31 Nordeste 0 -- -- 75
2021-01-14 08:00:00 9.7 21 Nordeste 27 Nordeste 0 -- -- 74
2021-01-14 07:00:00 9.7 8 Nordeste 13 Nordeste 0 -- -- 67
2021-01-14 06:00:00 9.8 11 Nordeste 24 Norte 0 -- -- 65
2021-01-14 05:00:00 9.8 13 Nordeste 30 Nordeste 0 -- -- 64
2021-01-14 04:00:00 10 23 Nordeste 34 Nordeste 0 -- -- 58
2021-01-14 03:00:00 10.1 18 Nordeste 29 Nordeste 0 -- -- 60
2021-01-14 02:00:00 10.2 19 Nordeste 29 Nordeste 0 -- -- 65
2021-01-14 01:00:00 9.9 21 Nordeste 27 Nordeste 0 -- -- 63
2021-01-14 00:00:00 10 19 Nordeste 26 Norte 0 -- -- 59
2021-01-13 23:00:00 10 14 Norte 19 Nordeste 0 -- -- 64
2021-01-13 22:00:00 10.7 8 Nordeste 20 Nordeste 0 -- -- 68
2021-01-13 21:00:00 10.1 16 Nordeste 23 Nordeste 0 -- -- 67
2021-01-13 20:00:00 10.7 8 Nordeste 26 Nordeste 0 -- -- 62
2021-01-13 19:00:00 10.8 16 Nordeste 21 Nordeste 0 -- -- 65
2021-01-13 18:00:00 12 5 Este 19 Nordeste 0 -- -- 62
2021-01-13 17:00:00 14 6 Oeste 22 Oeste 0 -- -- 67
2021-01-13 16:00:00 15.5 12 Oeste 25 Oeste 0 -- -- 65
2021-01-13 15:00:00 15 10 Oeste 18 Oeste 0 -- -- 70
2021-01-13 14:00:00 14.8 8 Oeste 17 Oeste 0 -- -- 60
2021-01-13 13:00:00 13.3 7 Oeste 13 Oeste 0 -- -- 69
2021-01-13 12:00:00 13.6 5 Noroeste 12 Sudoeste 0 -- -- 71
2021-01-13 11:00:00 12.2 8 Noroeste 28 Nordeste 0 -- -- 73
2021-01-13 10:00:00 10.6 6 Este 11 Este 0 -- -- 77
2021-01-13 09:00:00 10.2 9 Nordeste 18 Nordeste 0 -- -- 78
2021-01-13 08:00:00 10.2 11 Nordeste 15 Nordeste 0 -- -- 75
2021-01-13 07:00:00 10.1 8 Este 12 Nordeste 0 -- -- 77
2021-01-13 06:00:00 9.6 8 Norte 17 Nordeste 0 -- -- 79
2021-01-13 05:00:00 9.8 6 Este 14 Este 0 -- -- 76
2021-01-13 04:00:00 9.8 5 Este 9 Nordeste 0 -- -- 77
2021-01-13 03:00:00 9.7 6 Nordeste 11 Este 0 -- -- 83
2021-01-13 02:00:00 9.8 6 Nordeste 10 Sudeste 0 -- -- 78
2021-01-13 01:00:00 9.9 2 Oeste 13 Norte 0 -- -- 74
2021-01-13 00:00:00 9.8 9 Nordeste 14 Nordeste 0 -- -- 80
2021-01-12 23:00:00 9.9 0 Calma 12 Nordeste 0 -- -- 83
2021-01-12 22:00:00 9.7 7 Nordeste 13 Nordeste 0 -- -- 84
2021-01-12 21:00:00 9.7 4 Sudeste 15 Nordeste 0 -- -- 84
2021-01-12 20:00:00 10.4 7 Este 13 Este 0 -- -- 85
2021-01-12 19:00:00 11.1 5 Oeste 12 Noroeste 0 -- -- 79
2021-01-12 18:00:00 12.6 10 Oeste 14 Oeste 0 -- -- 79
2021-01-12 17:00:00 12 5 Oeste 14 Sur 0 -- -- 84
2021-01-12 16:00:00 11.7 10 Sur 14 Sur 0 -- -- 80
2021-01-12 15:00:00 11.7 4 Oeste 12 Sur 0.8 -- -- 88
2021-01-12 14:00:00 11.4 3 Noroeste 14 Oeste 0.2 -- -- 85
2021-01-12 13:00:00 11.6 8 Oeste 19 Sudoeste 0 -- -- 79
2021-01-12 12:00:00 13.1 10 Sudoeste 17 Sudoeste 0 -- -- 70
2021-01-12 11:00:00 12.1 5 Sudoeste 12 Oeste 0 -- -- 70
2021-01-12 10:00:00 10.3 2 Norte 7 Sudeste 0 -- -- 78
2021-01-12 09:00:00 9.5 3 Sudeste 23 Nordeste 0 -- -- 76
2021-01-12 08:00:00 9.4 13 Nordeste 17 Nordeste 0 -- -- 76
2021-01-12 07:00:00 9.4 0 Calma 9 Nordeste 0 -- -- 75
2021-01-12 06:00:00 9.1 3 Nordeste 13 Sudeste 0 -- -- 69
2021-01-12 05:00:00 9.7 5 Sudeste 23 Norte 0 -- -- 63
2021-01-12 04:00:00 9.4 14 Nordeste 30 Norte 0 -- -- 62
2021-01-12 03:00:00 9.8 22 Norte 29 Nordeste 0 -- -- 67
2021-01-12 02:00:00 9.8 18 Nordeste 24 Nordeste 0 -- -- 72
2021-01-12 01:00:00 10.2 10 Norte 41 Nordeste 0 -- -- 67
2021-01-12 00:00:00 9.8 14 Norte 30 Norte 0 -- -- 74
2021-01-11 23:00:00 9.8 8 Norte 19 Nordeste 0 -- -- 72
2021-01-11 22:00:00 9.4 3 Nordeste 23 Norte 0 -- -- 74
2021-01-11 21:00:00 9.6 15 Nordeste 21 Nordeste 0 -- -- 77
2021-01-11 20:00:00 9.9 5 Nordeste 12 Nordeste 0 -- -- 84
2021-01-11 19:00:00 10 0 Calma 10 Oeste 0 -- -- 78
2021-01-11 18:00:00 11 11 Norte 18 Nordeste 0 -- -- 74
2021-01-11 17:00:00 11.4 6 Oeste 17 Oeste 0 -- -- 79
2021-01-11 16:00:00 12.1 9 Oeste 15 Sudoeste 0 -- -- 74
2021-01-11 15:00:00 12.2 3 Sur 19 Sudoeste 0 -- -- 64
2021-01-11 14:00:00 11.7 10 Sur 30 Norte 0 -- -- 64
2021-01-11 13:00:00 12.3 4 Sudoeste 31 Norte 0 -- -- 62
2021-01-11 12:00:00 11.5 9 Oeste 21 Noroeste 0 -- -- 72
2021-01-11 11:00:00 10.4 8 Norte 21 Nordeste 0 -- -- 70
2021-01-11 10:00:00 8.6 4 Noroeste 21 Noroeste 0 -- -- 70
2021-01-11 09:00:00 8.2 7 Noroeste 15 Norte 0 -- -- 72
2021-01-11 08:00:00 7.8 7 Norte 20 Norte 0 -- -- 72
2021-01-11 07:00:00 8.1 4 Nordeste 24 Nordeste 0 -- -- 68
2021-01-11 06:00:00 8.4 13 Norte 30 Norte 0 -- -- 67
2021-01-11 05:00:00 9.2 9 Nordeste 36 Nordeste 0 -- -- 69
2021-01-11 04:00:00 9.1 12 Nordeste 36 Nordeste 0 -- -- 70
2021-01-11 03:00:00 9 6 Noroeste 27 Nordeste 0 -- -- 79
2021-01-11 02:00:00 9.3 4 Sudeste 24 Nordeste 0 -- -- 85
2021-01-11 01:00:00 9.6 12 Norte 41 Nordeste 0 -- -- 76
2021-01-11 00:00:00 9.2 31 Norte 55 Noroeste 0 -- -- 80
2021-01-10 23:00:00 9.4 14 Norte 42 Noroeste 0 -- -- 86
2021-01-10 22:00:00 9.9 20 Noroeste 48 Noroeste 0 -- -- 72
2021-01-10 21:00:00 9.9 28 Noroeste 53 Noroeste 0 -- -- 71
2021-01-10 20:00:00 10 21 Norte 47 Noroeste 0 -- -- 70
2021-01-10 19:00:00 10.2 21 Noroeste 42 Noroeste 0 -- -- 76
2021-01-10 18:00:00 11.2 22 Noroeste 56 Noroeste 0 -- -- 73
2021-01-10 17:00:00 12 30 Norte 63 Noroeste 0 -- -- 67
2021-01-10 16:00:00 12.5 26 Noroeste 71 Noroeste 0 -- -- 61
2021-01-10 15:00:00 12.5 37 Noroeste 58 Norte 0 -- -- 67
2021-01-10 14:00:00 12 27 Noroeste 54 Noroeste 0 -- -- 69
2021-01-10 13:00:00 11.9 30 Noroeste 64 Noroeste 0 -- -- 68
2021-01-10 12:00:00 10.5 22 Noroeste 54 Noroeste 0 -- -- 78
2021-01-10 11:00:00 9.9 25 Noroeste 49 Noroeste 0.2 -- -- 74
2021-01-10 10:00:00 9.5 18 Norte 41 Noroeste 0 -- -- 81
2021-01-10 09:00:00 8.9 26 Norte 43 Noroeste 0 -- -- 84
2021-01-10 08:00:00 8.7 19 Norte 42 Noroeste 0.2 -- -- 86
2021-01-10 07:00:00 8.3 13 Norte 31 Noroeste 0.2 -- -- 91
2021-01-10 06:00:00 8.1 9 Norte 29 Noroeste 0.2 -- -- 89
2021-01-10 05:00:00 8.2 4 Norte 25 Noroeste 0.4 -- -- 90
2021-01-10 04:00:00 8.5 13 Norte 30 Noroeste 0 -- -- 85
2021-01-10 03:00:00 8.6 14 Norte 32 Norte 0 -- -- 80
2021-01-10 02:00:00 8.6 12 Noroeste 26 Noroeste 0 -- -- 79
2021-01-10 01:00:00 8.4 15 Norte 31 Nordeste 0 -- -- 78
2021-01-10 00:00:00 8.4 12 Norte 31 Noroeste 0 -- -- 80
2021-01-09 23:00:00 8.8 15 Norte 33 Nordeste 0 -- -- 72
2021-01-09 22:00:00 8.5 13 Norte 31 Noroeste 0 -- -- 69
2021-01-09 21:00:00 8.3 11 Norte 40 Noroeste 0 -- -- 77
2021-01-09 20:00:00 8.6 19 Noroeste 49 Nordeste 0 -- -- 76
2021-01-09 19:00:00 9.5 10 Norte 31 Norte 0 -- -- 69
2021-01-09 18:00:00 10.8 17 Noroeste 45 Noroeste 0 -- -- 64
2021-01-09 17:00:00 11.5 21 Noroeste 54 Noroeste 0 -- -- 65
2021-01-09 16:00:00 12 22 Noroeste 62 Noroeste 0 -- -- 61
2021-01-09 15:00:00 11.7 32 Noroeste 67 Noroeste 0 -- -- 60
2021-01-09 14:00:00 11.6 20 Noroeste 63 Norte 0 -- -- 63
2021-01-09 13:00:00 11.5 28 Noroeste 51 Noroeste 0 -- -- 63
2021-01-09 12:00:00 11.2 22 Norte 58 Nordeste 0 -- -- 67
2021-01-09 11:00:00 10.2 22 Norte 53 Oeste 0 -- -- 68
2021-01-09 10:00:00 9.1 18 Norte 57 Noroeste 0 -- -- 69
2021-01-09 09:00:00 8.5 22 Noroeste 64 Noroeste 0 -- -- 74
2021-01-09 08:00:00 8.5 22 Noroeste 56 Noroeste 0 -- -- 75
2021-01-09 07:00:00 8.4 31 Noroeste 71 Noroeste 0 -- -- 75
2021-01-09 06:00:00 8.5 32 Noroeste 59 Noroeste 0 -- -- 75
2021-01-09 05:00:00 8.5 32 Norte 62 Noroeste 0.2 -- -- 79
2021-01-09 04:00:00 8.8 16 Noroeste 42 Noroeste 0 -- -- 82
2021-01-09 03:00:00 9.2 21 Noroeste 46 Noroeste 0 -- -- 72
2021-01-09 02:00:00 9.1 19 Noroeste 40 Nordeste 0 -- -- 70
2021-01-09 01:00:00 9.2 27 Norte 51 Nordeste 0 -- -- 73
2021-01-09 00:00:00 9.7 24 Norte 50 Norte 0 -- -- 74
2021-01-08 23:00:00 9.9 21 Noroeste 50 Norte 0 -- -- 77
2021-01-08 22:00:00 10.1 30 Norte 54 Noroeste 0 -- -- 77
2021-01-08 21:00:00 10.3 23 Noroeste 54 Noroeste 0 -- -- 76
2021-01-08 20:00:00 10.1 33 Norte 63 Norte 0 -- -- 75
2021-01-08 19:00:00 11 22 Norte 46 Noroeste 0 -- -- 76
2021-01-08 18:00:00 11.6 19 Noroeste 40 Noroeste 0 -- -- 78
2021-01-08 17:00:00 12.6 17 Noroeste 43 Noroeste 0 -- -- 74
2021-01-08 16:00:00 12.9 28 Norte 44 Noroeste 0 -- -- 72
2021-01-08 15:00:00 13.3 21 Noroeste 50 Norte 0 -- -- 75
2021-01-08 14:00:00 14.7 14 Noroeste 36 Noroeste 0 -- -- 78
2021-01-08 13:00:00 14.5 15 Oeste 30 Oeste 0 -- -- 76
2021-01-08 12:00:00 14.1 13 Oeste 32 Noroeste 0 -- -- 78
2021-01-08 11:00:00 12.7 22 Norte 44 Norte 0 -- -- 83
2021-01-08 10:00:00 11.5 25 Norte 47 Norte 0 -- -- 95
2021-01-08 09:00:00 11.5 8 Oeste 41 Oeste 0 -- -- 98
2021-01-08 08:00:00 11.4 20 Noroeste 41 Oeste 0 -- -- 99
2021-01-08 07:00:00 11.8 22 Noroeste 46 Noroeste 0 -- -- 99
2021-01-08 06:00:00 12.1 35 Noroeste 66 Noroeste 0 -- -- 99
2021-01-08 05:00:00 12.5 30 Oeste 68 Sudoeste 0 -- -- 100
2021-01-08 04:00:00 12.5 29 Oeste 64 Noroeste 0 -- -- 100
2021-01-08 03:00:00 12.7 34 Noroeste 69 Oeste 0.4 -- -- 99
2021-01-08 02:00:00 13.4 40 Oeste 76 Oeste 0.8 -- -- 100
2021-01-08 01:00:00 13.3 35 Oeste 80 Noroeste 0 -- -- 99
2021-01-08 00:00:00 13.6 39 Oeste 69 Sudoeste 0.2 -- -- 99
2021-01-07 23:00:00 14.3 35 Oeste 66 Oeste 0.4 -- -- 100
2021-01-07 22:00:00 14.4 40 Oeste 86 Sudoeste 4.2 -- -- 100
2021-01-07 21:00:00 14.4 29 Oeste 68 Oeste 1 -- -- 100
2021-01-07 20:00:00 14.7 37 Oeste 66 Sudoeste 0.2 -- -- 99
2021-01-07 19:00:00 15 40 Oeste 83 Oeste 0 -- -- 100
2021-01-07 18:00:00 15 39 Oeste 76 Sudoeste 0 -- -- 99
2021-01-07 17:00:00 14.9 43 Oeste 80 Sudoeste 0 -- -- 99
2021-01-07 16:00:00 14.9 42 Oeste 78 Oeste 0 -- -- 99
2021-01-07 15:00:00 14.9 40 Oeste 77 Oeste 0 -- -- 99
2021-01-07 14:00:00 14.8 42 Oeste 80 Sudoeste 0 -- -- 99
2021-01-07 13:00:00 14.8 35 Oeste 90 Sudoeste 4.8 -- -- 100
2021-01-07 12:00:00 15.5 45 Oeste 79 Sudoeste 0.8 -- -- 99
2021-01-07 11:00:00 15.2 34 Oeste 77 Oeste 0 -- -- 99
2021-01-07 10:00:00 14.9 36 Sudoeste 71 Sudoeste 0 -- -- 99
2021-01-07 09:00:00 14.5 33 Oeste 73 Sudoeste 0.4 -- -- 99
2021-01-07 08:00:00 14.8 33 Oeste 78 Oeste 10.8 -- -- 99
2021-01-07 07:00:00 14.7 27 Oeste 57 Oeste 2.2 -- -- 99
2021-01-07 06:00:00 14.5 28 Oeste 62 Oeste 0.4 -- -- 99
2021-01-07 05:00:00 14.9 34 Oeste 67 Sudoeste 3.8 -- -- 99
2021-01-07 04:00:00 14.6 27 Oeste 53 Oeste 0 -- -- 99
2021-01-07 03:00:00 14.4 27 Oeste 54 Sudoeste 0.4 -- -- 99
2021-01-07 02:00:00 14.5 27 Oeste 64 Sudoeste 0.4 -- -- 99
2021-01-07 01:00:00 14.6 33 Oeste 57 Sudoeste 0.2 -- -- 99
2021-01-07 00:00:00 14.7 29 Oeste 49 Oeste 0.2 -- -- 99
2021-01-06 23:00:00 14.4 20 Oeste 54 Oeste 0 -- -- 99
2021-01-06 22:00:00 14.4 21 Oeste 49 Sudoeste 0 -- -- 99
2021-01-06 21:00:00 14.1 25 Noroeste 52 Oeste 0 -- -- 99
2021-01-06 20:00:00 14.1 31 Noroeste 59 Noroeste 0 -- -- 99
2021-01-06 19:00:00 14.4 31 Noroeste 58 Oeste 0 -- -- 99
2021-01-06 18:00:00 14.5 32 Noroeste 61 Noroeste 0 -- -- 99
2021-01-06 17:00:00 14.8 31 Oeste 87 Sudoeste 2.2 -- -- 99
2021-01-06 16:00:00 15.3 29 Oeste 83 Sudoeste 2.6 -- -- 99
2021-01-06 15:00:00 15.8 36 Oeste 74 Oeste 3 -- -- 99
2021-01-06 14:00:00 15.9 43 Oeste 82 Noroeste 1.8 -- -- 99
2021-01-06 13:00:00 15.6 42 Oeste 72 Oeste 0 -- -- 98
2021-01-06 12:00:00 15.5 37 Oeste 78 Oeste 0 -- -- 98
2021-01-06 11:00:00 15.2 38 Oeste 71 Oeste 1.8 -- -- 98
2021-01-06 10:00:00 15.1 38 Oeste 73 Sudoeste 0.6 -- -- 99
2021-01-06 09:00:00 15.3 33 Oeste 75 Oeste 1.2 -- -- 98
2021-01-06 08:00:00 15.2 33 Oeste 71 Oeste 3 -- -- 98
2021-01-06 07:00:00 14.7 30 Oeste 67 Oeste 0.2 -- -- 98
2021-01-06 06:00:00 14.2 28 Oeste 53 Oeste 0 -- -- 98
2021-01-06 05:00:00 13.6 27 Oeste 49 Sudoeste 0.2 -- -- 98
2021-01-06 04:00:00 13.7 26 Oeste 51 Sudoeste 0 -- -- 98
2021-01-06 03:00:00 13.7 23 Oeste 50 Sudoeste 0.2 -- -- 98
2021-01-06 02:00:00 13.8 19 Oeste 40 Oeste 1.4 -- -- 98
2021-01-06 01:00:00 13.8 22 Oeste 37 Oeste 0.8 -- -- 97
2021-01-06 00:00:00 13.7 19 Oeste 37 Oeste 0.4 -- -- 97
2021-01-05 23:00:00 13.8 14 Oeste 27 Sudoeste 0.6 -- -- 97
2021-01-05 22:00:00 13.9 15 Oeste 30 Oeste 0.8 -- -- 97
2021-01-05 21:00:00 13.9 16 Oeste 35 Oeste 0.2 -- -- 96
2021-01-05 20:00:00 14.1 15 Oeste 30 Sudoeste 0.8 -- -- 96
2021-01-05 19:00:00 14.1 12 Oeste 27 Oeste 0.2 -- -- 95
2021-01-05 18:00:00 14.8 12 Oeste 24 Oeste 0.2 -- -- 95
2021-01-05 17:00:00 14.9 17 Oeste 40 Sudoeste 1 -- -- 95
2021-01-05 16:00:00 15.6 14 Oeste 35 Norte 0 -- -- 91
2021-01-05 15:00:00 16.4 20 Oeste 35 Noroeste 0 -- -- 84
2021-01-05 14:00:00 16.5 15 Oeste 30 Noroeste 0 -- -- 85
2021-01-05 13:00:00 16.3 15 Oeste 34 Oeste 0 -- -- 81
2021-01-05 12:00:00 16.4 18 Oeste 30 Oeste 0 -- -- 80
2021-01-05 11:00:00 15.5 15 Oeste 24 Oeste 0 -- -- 87
2021-01-05 10:00:00 13.6 11 Noroeste 25 Oeste 0.2 -- -- 94
2021-01-05 09:00:00 13.5 12 Oeste 28 Oeste 0 -- -- 95
2021-01-05 08:00:00 13 15 Oeste 25 Oeste 0 -- -- 94
2021-01-05 07:00:00 12.9 12 Oeste 28 Oeste 0 -- -- 94
2021-01-05 06:00:00 13.3 13 Noroeste 24 Oeste 0.4 -- -- 95
2021-01-05 05:00:00 13.3 11 Oeste 18 Noroeste 0 -- -- 95
2021-01-05 04:00:00 13.4 10 Oeste 25 Oeste 0.6 -- -- 95
2021-01-05 03:00:00 13.5 13 Oeste 31 Oeste 0 -- -- 95
2021-01-05 02:00:00 13.8 21 Oeste 37 Oeste 0 -- -- 96
2021-01-05 01:00:00 13.9 19 Oeste 36 Noroeste 0 -- -- 96
2021-01-05 00:00:00 13.9 15 Oeste 44 Noroeste 0 -- -- 95
2021-01-04 23:00:00 13.9 19 Noroeste 36 Noroeste 0 -- -- 92
2021-01-04 22:00:00 13.8 19 Oeste 44 Oeste 0 -- -- 89
2021-01-04 21:00:00 13.9 22 Oeste 42 Oeste 0 -- -- 80
2021-01-04 20:00:00 13.7 19 Oeste 42 Noroeste 0 -- -- 81
2021-01-04 19:00:00 12.5 16 Noroeste 34 Noroeste 0 -- -- 93
2021-01-04 18:00:00 12.5 21 Oeste 35 Oeste 0 -- -- 93
2021-01-04 17:00:00 12.7 12 Oeste 19 Oeste 0 -- -- 94
2021-01-04 16:00:00 12.5 10 Oeste 19 Oeste 0 -- -- 95
2021-01-04 15:00:00 12.5 10 Oeste 15 Oeste 0 -- -- 95
2021-01-04 14:00:00 12.4 6 Noroeste 12 Noroeste 0 -- -- 95
2021-01-04 13:00:00 12.4 3 Noroeste 9 Oeste 0 -- -- 95
2021-01-04 12:00:00 12.3 2 Nordeste 9 Oeste 0 -- -- 93
2021-01-04 11:00:00 12.2 3 Oeste 8 Oeste 0 -- -- 92
2021-01-04 10:00:00 11.7 3 Oeste 12 Nordeste 0 -- -- 91
2021-01-04 09:00:00 11.2 5 Nordeste 10 Nordeste 0 -- -- 93
2021-01-04 08:00:00 10.9 2 Nordeste 10 Nordeste 0 -- -- 93
2021-01-04 07:00:00 10.8 3 Norte 10 Nordeste 0 -- -- 92
2021-01-04 06:00:00 10.7 3 Nordeste 13 Nordeste 0 -- -- 92
2021-01-04 05:00:00 10.5 6 Este 9 Este 0 -- -- 92
2021-01-04 04:00:00 10.3 0 Calma 13 Nordeste 0 -- -- 88
2021-01-04 03:00:00 10.5 9 Nordeste 21 Nordeste 0 -- -- 88
2021-01-04 02:00:00 10.4 15 Nordeste 21 Nordeste 0 -- -- 89
2021-01-04 01:00:00 10.5 6 Nordeste 13 Este 0 -- -- 84
2021-01-04 00:00:00 10.7 2 Norte 10 Este 0 -- -- 84
2021-01-03 23:00:00 11 8 Este 13 Nordeste 0 -- -- 82
2021-01-03 22:00:00 11.2 9 Este 12 Este 0 -- -- 83
2021-01-03 21:00:00 11.3 4 Este 12 Este 0 -- -- 84
2021-01-03 20:00:00 11.4 6 Nordeste 14 Nordeste 0 -- -- 84
2021-01-03 19:00:00 11.7 5 Este 9 Este 0 -- -- 82
2021-01-03 18:00:00 12.2 4 Sudoeste 15 Sudoeste 0 -- -- 80
2021-01-03 17:00:00 13.3 5 Oeste 15 Sudoeste 0 -- -- 77
2021-01-03 16:00:00 14.1 8 Oeste 16 Oeste 0 -- -- 77
2021-01-03 15:00:00 13.5 7 Oeste 14 Oeste 0 -- -- 77
2021-01-03 14:00:00 13.1 7 Oeste 17 Oeste 0 -- -- 79
2021-01-03 13:00:00 13.3 7 Oeste 16 Oeste 0 -- -- 77
2021-01-03 12:00:00 12.7 5 Noroeste 11 Oeste 0 -- -- 80
2021-01-03 11:00:00 12.1 3 Sudoeste 9 Oeste 0 -- -- 81
2021-01-03 10:00:00 11.7 5 Oeste 8 Oeste 0 -- -- 83
2021-01-03 09:00:00 10.7 0 Calma 5 Sudoeste 0 -- -- 85
2021-01-03 08:00:00 10.1 4 Este 9 Nordeste 0 -- -- 82
2021-01-03 07:00:00 10.1 5 Este 6 Este 0 -- -- 82
2021-01-03 06:00:00 10 0 Calma 10 Nordeste 0 -- -- 83
2021-01-03 05:00:00 10.1 4 Nordeste 9 Norte 0 -- -- 81
2021-01-03 04:00:00 10.2 5 Noroeste 13 Noroeste 0 -- -- 83
2021-01-03 03:00:00 10.2 7 Nordeste 11 Nordeste 0 -- -- 80
2021-01-03 02:00:00 10.3 8 Nordeste 12 Nordeste 0 -- -- 80
2021-01-03 01:00:00 10.5 3 Este 8 Nordeste 0 -- -- 78
2021-01-03 00:00:00 10.3 6 Nordeste 9 Nordeste 0 -- -- 81
2021-01-02 23:00:00 10.4 5 Noroeste 11 Oeste 0 -- -- 83
2021-01-02 22:00:00 11.1 0 Calma 11 Sur 0 -- -- 81
2021-01-02 21:00:00 11.2 8 Sur 12 Sur 0 -- -- 81
2021-01-02 20:00:00 11.3 2 Sudeste 8 Sudoeste 0 -- -- 80
2021-01-02 19:00:00 11.4 6 Sudoeste 9 Sudoeste 0 -- -- 81
2021-01-02 18:00:00 12.2 0 Calma 16 Oeste 0 -- -- 77
2021-01-02 17:00:00 12.7 9 Oeste 21 Sudoeste 0 -- -- 76
2021-01-02 16:00:00 13.5 10 Oeste 23 Oeste 0 -- -- 74
2021-01-02 15:00:00 14 9 Oeste 22 Oeste 0 -- -- 71
2021-01-02 14:00:00 14.7 11 Oeste 24 Sudoeste 0 -- -- 67
2021-01-02 13:00:00 15.9 14 Oeste 24 Oeste 0 -- -- 65